DL3774 / N931EV 7700 Squawk Report (28th of October, 2020)

Aircraft CRJ2 Reg No. N931EV Age N/A
Model Regional-Jet Jet engines 2 First flight 03-05
Registered 06-12-17 Rollout 02-05 Delivered 11-03-05
Construction No. 8015 Line No. N/A Series 200ER
ADSHEX ACE9D8 Airline name Delta Connection Owner SkyWest Airlines
Airfield based Salt Lake City Int'l~UT~N First tracked N/A

Flight history for N931EV

Route Flight No Date Playback
Detroit Metro Wayne Co (DTW) - South Bend Rgnl (SBN) DL3781 2020-11-30 02:11:00
Central Illinois Rgnl (BMI) - Detroit Metro Wayne Co (DTW) DL3874 2020-11-30 00:17:00
Detroit Metro Wayne Co (DTW) - Central Illinois Rgnl (BMI) DL3833 2020-11-29 23:20:00
Sawyer International Airport (MQT) - Detroit Metro Wayne Co (DTW) DL4328 2020-11-29 17:36:00
Kalamazoo (AZO) - Detroit Metro Wayne Co (DTW) DL3778 2020-11-29 12:14:00
Detroit Metro Wayne Co (DTW) - Kalamazoo (AZO) DL3795 2020-11-29 11:41:00
The Eastern Iowa Airport (CID) - Detroit Metro Wayne Co (DTW) DL3838 2020-11-29 00:28:00
Detroit Metro Wayne Co (DTW) - The Eastern Iowa Airport (CID) DL4009 2020-11-28 22:03:00
Detroit Metro Wayne Co (DTW) - Lehigh Valley Intl (ABE) - Detroit Metro Wayne Co (DTW) DL3743 2020-11-28 19:11:00
South Bend Rgnl (SBN) - Detroit Metro Wayne Co (DTW) DL3805 2020-11-28 14:21:00
Detroit Metro Wayne Co (DTW) - South Bend Rgnl (SBN) DL3781 2020-11-26 02:11:00
Detroit Metro Wayne Co (DTW) - Fort Wayne (FWA) - Detroit Metro Wayne Co (DTW) DL4263 2020-11-25 22:44:00
Tri Cities Airport (PSC) - Seattle Tacoma Intl (SEA) DL3685 2020-11-25 22:01:00
Detroit Metro Wayne Co (DTW) - South Bend Rgnl (SBN) - Detroit Metro Wayne Co (DTW) DL3755 2020-11-25 17:37:00
The Eastern Iowa Airport (CID) - Detroit Metro Wayne Co (DTW) DL3837 2020-11-25 14:21:00
Detroit Metro Wayne Co (DTW) - The Eastern Iowa Airport (CID) DL3846 2020-11-25 12:51:00
Detroit Metro Wayne Co (DTW) - University Park Airport (SCE) - Detroit Metro Wayne Co (DTW) DL3858 2020-11-24 22:55:00
Alpena County Regional Airport (APN) - Detroit Metro Wayne Co (DTW) DL4324 2020-11-24 19:16:00
Lehigh Valley Intl (ABE) - Detroit Metro Wayne Co (DTW) DL3745 2020-11-24 12:10:00
Detroit Metro Wayne Co (DTW) - Lehigh Valley Intl (ABE) DL3812 2020-11-24 03:22:00
Time Lat Lon Altitude Heading Speed Vertical Rate
2020-10-28 02:21:59 GMT 41.411091 -81.840797 0 27 11 -96
2020-10-28 02:21:56 GMT 41.410881 -81.840958 0 27 11 -96
2020-10-28 02:21:53 GMT 41.410881 -81.840958 0 27 18 -96
2020-10-28 02:21:50 GMT 41.410648 -81.841133 0 18 14 -96
2020-10-28 02:21:47 GMT 41.410591 -81.841217 0 18 7 -96
2020-10-28 02:21:44 GMT 41.410542 -81.841179 0 17 5 -96
2020-10-28 02:21:41 GMT 41.410469 -81.841171 0 53 6 -96
2020-10-28 02:21:38 GMT 41.410320 -81.841171 0 89 8 -96
2020-10-28 02:21:35 GMT 41.410278 -81.841301 0 97 9 -96
2020-10-28 02:21:32 GMT 41.410290 -81.841492 0 101 9 -96
2020-10-28 02:21:29 GMT 41.410309 -81.841652 0 102 10 -96
2020-10-28 02:21:26 GMT 41.410381 -81.841873 0 103 7 -96
2020-10-28 02:21:23 GMT 41.410389 -81.841988 0 103 8 -96
2020-10-28 02:21:20 GMT 41.410469 -81.842339 0 94 8 -96
2020-10-28 02:21:17 GMT 41.410469 -81.842339 0 92 9 -96
2020-10-28 02:21:14 GMT 41.410480 -81.842484 0 86 10 -96
2020-10-28 02:21:11 GMT 41.410500 -81.842667 0 74 10 -96
2020-10-28 02:21:08 GMT 41.410431 -81.843018 0 35 8 -96
2020-10-28 02:21:05 GMT 41.410431 -81.843018 0 26 8 -96
2020-10-28 02:21:02 GMT 41.410351 -81.843117 0 10 9 -96
2020-10-28 02:20:59 GMT 41.410259 -81.843201 0 351 8 -96
2020-10-28 02:20:56 GMT 41.410149 -81.843178 0 359 14 -96
2020-10-28 02:20:53 GMT 41.409969 -81.843178 0 358 15 -96
2020-10-28 02:20:50 GMT 41.409752 -81.843178 0 359 15 -96
2020-10-28 02:20:47 GMT 41.409531 -81.843178 0 359 14 -96
2020-10-28 02:20:44 GMT 41.409328 -81.843163 0 1 14 -96
2020-10-28 02:20:41 GMT 41.409130 -81.843163 0 2 14 -96
2020-10-28 02:20:38 GMT 41.408939 -81.843178 0 4 12 -96
2020-10-28 02:20:35 GMT 41.408779 -81.843163 0 27 14 -96
2020-10-28 02:20:32 GMT 41.408562 -81.843277 0 49 8 -96
2020-10-28 02:20:29 GMT 41.408451 -81.843437 0 46 15 -96
2020-10-28 02:20:26 GMT 41.408272 -81.843697 0 48 10 -96
2020-10-28 02:20:23 GMT 41.408272 -81.843697 0 47 9 -96
2020-10-28 02:20:20 GMT 41.408180 -81.843826 0 46 9 -96
2020-10-28 02:20:17 GMT 41.408119 -81.843971 0 40 9 -96
2020-10-28 02:20:14 GMT 41.408020 -81.844093 0 29 11 -96
2020-10-28 02:20:11 GMT 41.407902 -81.844208 0 24 10 -96
2020-10-28 02:20:08 GMT 41.407799 -81.844307 0 1 12 -96
2020-10-28 02:20:05 GMT 41.407639 -81.844330 0 1 12 -96
2020-10-28 02:20:02 GMT 41.407501 -81.844337 0 358 13 -96
2020-10-28 02:19:59 GMT 41.407318 -81.844330 0 358 13 -96
2020-10-28 02:19:56 GMT 41.406940 -81.844330 0 1 13 -96
2020-10-28 02:19:53 GMT 41.406940 -81.844330 0 0 13 -96
2020-10-28 02:19:50 GMT 41.406769 -81.844299 0 5 13 -96
2020-10-28 02:19:47 GMT 41.406582 -81.844292 0 19 13 -96
2020-10-28 02:19:44 GMT 41.406399 -81.844360 0 45 11 -96
2020-10-28 02:19:41 GMT 41.406231 -81.844467 0 70 12 -96
2020-10-28 02:19:38 GMT 41.406189 -81.844673 0 89 11 -96
2020-10-28 02:19:35 GMT 41.406170 -81.844879 0 92 12 -96
2020-10-28 02:19:32 GMT 41.406181 -81.845078 0 94 12 -96
2020-10-28 02:19:29 GMT 41.406189 -81.845291 0 94 13 -96
2020-10-28 02:19:26 GMT 41.406212 -81.845551 0 92 14 -96
2020-10-28 02:19:23 GMT 41.406219 -81.845810 0 94 13 -96
2020-10-28 02:19:20 GMT 41.406231 -81.846046 0 92 13 -96
2020-10-28 02:19:17 GMT 41.406250 -81.846291 0 92 13 -96
2020-10-28 02:19:14 GMT 41.406250 -81.846542 0 93 13 -96
2020-10-28 02:19:11 GMT 41.406269 -81.846786 0 93 12 -96
2020-10-28 02:19:08 GMT 41.406269 -81.847008 0 92 12 -96
2020-10-28 02:19:05 GMT 41.406281 -81.847473 0 93 12 -96
2020-10-28 02:19:02 GMT 41.406281 -81.847473 0 95 12 -96
2020-10-28 02:18:59 GMT 41.406300 -81.847702 0 94 11 -96
2020-10-28 02:18:56 GMT 41.406319 -81.847908 0 92 10 -96
2020-10-28 02:18:53 GMT 41.406330 -81.848289 0 88 10 -96
2020-10-28 02:18:50 GMT 41.406330 -81.848289 0 90 9 -96
2020-10-28 02:18:47 GMT 41.406319 -81.848473 0 92 10 -96
2020-10-28 02:18:44 GMT 41.406330 -81.848633 0 94 11 -96
2020-10-28 02:18:41 GMT 41.406349 -81.848831 0 93 11 -96
2020-10-28 02:18:38 GMT 41.406342 -81.849007 0 98 13 -96
2020-10-28 02:18:35 GMT 41.406368 -81.849220 0 93 14 -96
2020-10-28 02:18:32 GMT 41.406391 -81.849472 0 91 15 -96
2020-10-28 02:18:29 GMT 41.406391 -81.849747 0 93 15 -96
2020-10-28 02:18:26 GMT 41.406391 -81.850029 0 94 14 -96
2020-10-28 02:18:23 GMT 41.406410 -81.850304 0 94 15 -96
2020-10-28 02:18:20 GMT 41.406441 -81.850838 0 92 15 -96
2020-10-28 02:18:17 GMT 41.406441 -81.850838 0 93 15 -96
2020-10-28 02:18:14 GMT 41.406448 -81.851128 0 93 15 -96
2020-10-28 02:18:11 GMT 41.406460 -81.851418 0 91 15 -96
2020-10-28 02:18:08 GMT 41.406471 -81.851692 0 93 14 -96
2020-10-28 02:18:05 GMT 41.406479 -81.851959 0 92 14 -96
2020-10-28 02:18:02 GMT 41.406479 -81.852219 0 94 13 -96
2020-10-28 02:17:59 GMT 41.406509 -81.852470 0 92 13 -96
2020-10-28 02:17:56 GMT 41.406521 -81.852722 0 90 13 -96
2020-10-28 02:17:53 GMT 41.406509 -81.852959 0 91 12 -96
2020-10-28 02:17:50 GMT 41.406528 -81.853188 0 91 12 -96
2020-10-28 02:17:47 GMT 41.406528 -81.853439 0 64 11 -96
2020-10-28 02:17:44 GMT 41.406502 -81.853638 0 57 11 -96
2020-10-28 02:17:41 GMT 41.406429 -81.853821 0 53 12 -96
2020-10-28 02:17:38 GMT 41.406342 -81.853996 0 49 13 -96
2020-10-28 02:17:35 GMT 41.406219 -81.854172 0 50 13 -96
2020-10-28 02:17:32 GMT 41.406109 -81.854362 0 48 13 -96
2020-10-28 02:17:29 GMT 41.405991 -81.854538 0 49 12 -96
2020-10-28 02:17:26 GMT 41.405869 -81.854721 0 51 12 -96
2020-10-28 02:17:23 GMT 41.405769 -81.854897 0 50 13 -96
2020-10-28 02:17:20 GMT 41.405651 -81.855080 0 53 11 -96
2020-10-28 02:17:17 GMT 41.405560 -81.855240 0 47 11 -96
2020-10-28 02:17:14 GMT 41.405479 -81.855408 0 44 11 -96
2020-10-28 02:17:11 GMT 41.405369 -81.855537 0 47 11 -96
2020-10-28 02:17:08 GMT 41.405170 -81.855827 0 50 10 -96
2020-10-28 02:17:05 GMT 41.405170 -81.855827 0 47 10 -96
2020-10-28 02:17:02 GMT 41.405079 -81.855972 0 49 10 -96
2020-10-28 02:16:59 GMT 41.405010 -81.856102 0 49 10 -96
2020-10-28 02:16:56 GMT 41.404911 -81.856232 0 48 11 -96
2020-10-28 02:16:53 GMT 41.404812 -81.856392 0 55 12 -96
2020-10-28 02:16:50 GMT 41.404732 -81.856560 0 50 13 -96
2020-10-28 02:16:47 GMT 41.404629 -81.856750 0 47 13 -96
2020-10-28 02:16:44 GMT 41.404510 -81.856934 0 47 13 -96
2020-10-28 02:16:41 GMT 41.404369 -81.857109 0 48 13 -96
2020-10-28 02:16:38 GMT 41.404251 -81.857277 0 50 13 -96
2020-10-28 02:16:35 GMT 41.404129 -81.857460 0 50 13 -96
2020-10-28 02:16:32 GMT 41.404018 -81.857651 0 50 14 -96
2020-10-28 02:16:29 GMT 41.403889 -81.857857 0 50 13 -96
2020-10-28 02:16:26 GMT 41.403770 -81.858047 0 51 12 -96
2020-10-28 02:16:23 GMT 41.403568 -81.858391 0 50 11 -96
2020-10-28 02:16:20 GMT 41.403568 -81.858391 0 49 11 -96
2020-10-28 02:16:17 GMT 41.403481 -81.858551 0 47 11 -96
2020-10-28 02:16:14 GMT 41.403370 -81.858711 0 47 12 -96
2020-10-28 02:16:11 GMT 41.403252 -81.858871 0 38 10 -96
2020-10-28 02:16:08 GMT 41.403160 -81.859009 0 31 10 -96
2020-10-28 02:16:05 GMT 41.403049 -81.859123 0 29 11 -96
2020-10-28 02:16:02 GMT 41.402920 -81.859238 0 21 11 -96
2020-10-28 02:15:59 GMT 41.402779 -81.859329 0 14 10 -96
2020-10-28 02:15:56 GMT 41.402660 -81.859383 0 11 10 -96
2020-10-28 02:15:53 GMT 41.402550 -81.859428 0 6 12 -96
2020-10-28 02:15:50 GMT 41.402191 -81.859497 0 10 13 -96
2020-10-28 02:15:47 GMT 41.402191 -81.859497 0 10 12 -96
2020-10-28 02:15:44 GMT 41.402020 -81.859528 0 6 12 -96
2020-10-28 02:15:41 GMT 41.401852 -81.859512 0 12 13 -96
2020-10-28 02:15:38 GMT 41.401691 -81.859589 0 38 12 -96
2020-10-28 02:15:35 GMT 41.401550 -81.859718 0 44 11 -96
2020-10-28 02:15:32 GMT 41.401421 -81.859840 0 46 11 -96
2020-10-28 02:15:29 GMT 41.401310 -81.859993 0 52 11 -96
2020-10-28 02:15:26 GMT 41.401199 -81.860161 0 52 10 -96
2020-10-28 02:15:23 GMT 41.401119 -81.860321 0 46 10 -96
2020-10-28 02:15:20 GMT 41.401009 -81.860458 0 48 10 -96
2020-10-28 02:15:17 GMT 41.400921 -81.860580 0 50 11 -96
2020-10-28 02:15:14 GMT 41.400829 -81.860733 0 50 11 -96
2020-10-28 02:15:11 GMT 41.400730 -81.860870 0 50 11 -96
2020-10-28 02:15:08 GMT 41.400631 -81.861038 0 50 11 -96
2020-10-28 02:15:05 GMT 41.400539 -81.861198 0 48 11 -96
2020-10-28 02:15:02 GMT 41.400452 -81.861351 0 49 11 -96
2020-10-28 02:14:59 GMT 41.400330 -81.861504 0 50 11 -96
2020-10-28 02:14:56 GMT 41.400242 -81.861649 0 52 10 -96
2020-10-28 02:14:53 GMT 41.400150 -81.861801 0 51 11 -96
2020-10-28 02:14:50 GMT 41.400070 -81.861961 0 44 11 -96
2020-10-28 02:14:47 GMT 41.399971 -81.862122 0 44 10 -96
2020-10-28 02:14:44 GMT 41.399799 -81.862244 0 88 11 -96
2020-10-28 02:14:41 GMT 41.399792 -81.862450 0 105 12 -96
2020-10-28 02:14:38 GMT 41.399799 -81.862671 0 131 11 -96
2020-10-28 02:14:35 GMT 41.399990 -81.862961 0 134 11 -96
2020-10-28 02:14:32 GMT 41.399990 -81.862961 0 136 13 -96
2020-10-28 02:14:29 GMT 41.400089 -81.863121 0 140 15 -96
2020-10-28 02:14:26 GMT 41.400249 -81.863297 0 141 15 -96
2020-10-28 02:14:23 GMT 41.400421 -81.863472 0 140 15 -96
2020-10-28 02:14:20 GMT 41.400581 -81.863647 0 140 15 -96
2020-10-28 02:14:17 GMT 41.400742 -81.863823 0 140 16 -96
2020-10-28 02:14:14 GMT 41.400909 -81.863998 0 152 16 -96
2020-10-28 02:14:11 GMT 41.401089 -81.864189 0 155 17 -96
2020-10-28 02:14:08 GMT 41.401321 -81.864326 0 126 17 -96
2020-10-28 02:14:05 GMT 41.401451 -81.864594 0 138 16 -96
2020-10-28 02:14:02 GMT 41.401772 -81.864998 0 140 18 -96
2020-10-28 02:13:59 GMT 41.401772 -81.864998 0 142 18 -96
2020-10-28 02:13:56 GMT 41.401981 -81.865196 0 140 17 -96
2020-10-28 02:13:53 GMT 41.402180 -81.865410 0 138 15 -96
2020-10-28 02:13:50 GMT 41.402351 -81.865608 0 139 13 -96
2020-10-28 02:13:47 GMT 41.402500 -81.865784 0 139 13 -96
2020-10-28 02:13:44 GMT 41.402630 -81.865936 0 139 12 -96
2020-10-28 02:13:41 GMT 41.402760 -81.866081 0 138 13 -96
2020-10-28 02:13:38 GMT 41.402889 -81.866226 0 142 13 -96
2020-10-28 02:13:35 GMT 41.403019 -81.866386 0 152 15 -96
2020-10-28 02:13:32 GMT 41.403191 -81.866508 0 169 13 -96
2020-10-28 02:13:29 GMT 41.403370 -81.866547 0 177 16 -96
2020-10-28 02:13:26 GMT 41.403629 -81.866508 0 201 22 -96
2020-10-28 02:13:23 GMT 41.403919 -81.866409 0 202 24 -96
2020-10-28 02:13:20 GMT 41.404240 -81.866249 0 208 22 -96
2020-10-28 02:13:17 GMT 41.404510 -81.866051 0 217 22 -96
2020-10-28 02:13:14 GMT 41.404758 -81.865799 0 231 35 -96
2020-10-28 02:13:11 GMT 41.405060 -81.865334 0 231 41 -96
2020-10-28 02:13:08 GMT 41.405411 -81.864723 0 228 46 -96
2020-10-28 02:13:05 GMT 41.405869 -81.864037 0 230 53 -96
2020-10-28 02:13:02 GMT 41.406330 -81.863297 0 230 56 -96
2020-10-28 02:12:59 GMT 41.406818 -81.862518 0 230 58 -96
2020-10-28 02:12:56 GMT 41.407330 -81.861687 0 229 69 -96
2020-10-28 02:12:53 GMT 41.407902 -81.860786 0 230 79 -96
2020-10-28 02:12:50 GMT 41.408611 -81.859680 0 230 86 -96
2020-10-28 02:12:47 GMT 41.409420 -81.858421 575 230 105 -96
2020-10-28 02:12:44 GMT 41.410351 -81.856956 575 229 119 -32
2020-10-28 02:12:41 GMT 41.411381 -81.855301 575 229 124 0
2020-10-28 02:12:38 GMT 41.412491 -81.853531 575 230 131 0
2020-10-28 02:12:35 GMT 41.413658 -81.851669 575 229 135 -768
2020-10-28 02:12:32 GMT 41.414879 -81.849747 625 230 140 -768
2020-10-28 02:12:29 GMT 41.416119 -81.847748 675 230 140 -768
2020-10-28 02:12:26 GMT 41.417381 -81.845772 700 230 140 -768
2020-10-28 02:12:23 GMT 41.418610 -81.843773 775 229 141 -768
2020-10-28 02:12:20 GMT 41.419861 -81.841782 800 229 141 -768
2020-10-28 02:12:17 GMT 41.421120 -81.839790 850 229 143 -768
2020-10-28 02:12:14 GMT 41.422428 -81.837769 875 229 143 -768
2020-10-28 02:12:11 GMT 41.423679 -81.835777 925 229 144 -768
2020-10-28 02:12:08 GMT 41.424969 -81.833763 950 230 145 -768
2020-10-28 02:12:05 GMT 41.426231 -81.831741 975 230 149 -768
2020-10-28 02:12:02 GMT 41.427551 -81.829567 1,025 230 146 -768
2020-10-28 02:11:59 GMT 41.430180 -81.825500 1,100 229 143 -768
2020-10-28 02:11:56 GMT 41.430180 -81.825500 1,100 229 142 -768
2020-10-28 02:11:53 GMT 41.431438 -81.823479 1,125 229 142 -768
2020-10-28 02:11:50 GMT 41.432701 -81.821487 1,150 229 142 -768
2020-10-28 02:11:47 GMT 41.433971 -81.819511 1,200 229 144 -768
2020-10-28 02:11:44 GMT 41.435299 -81.817513 1,250 229 144 -768
2020-10-28 02:11:41 GMT 41.436600 -81.815491 1,300 230 145 -768
2020-10-28 02:11:38 GMT 41.437881 -81.813423 1,325 230 144 -768
2020-10-28 02:11:35 GMT 41.439152 -81.811371 1,375 229 145 -768
2020-10-28 02:11:32 GMT 41.440479 -81.809334 1,400 230 144 -768
2020-10-28 02:11:29 GMT 41.441792 -81.807297 1,450 230 143 -768
2020-10-28 02:11:26 GMT 41.443008 -81.805283 1,525 230 144 -768
2020-10-28 02:11:23 GMT 41.444309 -81.803192 1,600 230 143 -768
2020-10-28 02:11:20 GMT 41.445580 -81.801147 1,550 230 143 -768
2020-10-28 02:11:17 GMT 41.446850 -81.799133 1,700 230 143 -768
2020-10-28 02:11:14 GMT 41.448109 -81.797119 1,700 229 144 -768
2020-10-28 02:11:11 GMT 41.449409 -81.795067 1,700 229 144 -768
2020-10-28 02:11:08 GMT 41.450680 -81.793037 1,700 229 145 -768
2020-10-28 02:11:05 GMT 41.451962 -81.791008 1,900 230 145 -768
2020-10-28 02:11:02 GMT 41.453259 -81.788963 1,900 229 147 -768
2020-10-28 02:10:59 GMT 41.454559 -81.786880 1,900 229 146 -768
2020-10-28 02:10:56 GMT 41.455872 -81.784813 1,900 229 146 -768
2020-10-28 02:10:53 GMT 41.457218 -81.782738 1,900 229 146 -768
2020-10-28 02:10:49 GMT 41.458950 -81.780060 2,000 229 144 -768
2020-10-28 02:10:46 GMT 41.460258 -81.777977 2,000 229 145 -768
2020-10-28 02:10:43 GMT 41.461529 -81.775940 2,200 229 144 -768
2020-10-28 02:10:40 GMT 41.462818 -81.773918 2,200 229 144 -896
2020-10-28 02:10:37 GMT 41.464130 -81.771896 2,200 229 144 -896
2020-10-28 02:10:34 GMT 41.465420 -81.769867 2,200 229 144 -896
2020-10-28 02:10:31 GMT 41.466690 -81.767830 2,300 229 145 -896
2020-10-28 02:10:28 GMT 41.467999 -81.765831 2,300 229 145 -896
2020-10-28 02:10:25 GMT 41.469280 -81.763779 2,300 229 145 -896
2020-10-28 02:10:22 GMT 41.470581 -81.761749 2,300 229 146 -896
2020-10-28 02:10:19 GMT 41.471882 -81.759666 2,400 229 146 -896
2020-10-28 02:10:16 GMT 41.473190 -81.757591 2,500 229 146 -896
2020-10-28 02:10:13 GMT 41.474480 -81.755569 2,500 229 147 -896
2020-10-28 02:10:10 GMT 41.475811 -81.753517 2,500 229 149 -896
2020-10-28 02:10:07 GMT 41.477119 -81.751442 2,700 229 152 -896
2020-10-28 02:10:04 GMT 41.478470 -81.749329 2,700 229 152 -896
2020-10-28 02:10:01 GMT 41.479801 -81.747192 2,700 229 153 -896
2020-10-28 02:09:58 GMT 41.481159 -81.745018 2,700 229 154 -896
2020-10-28 02:09:55 GMT 41.482521 -81.742882 2,700 230 155 -896
2020-10-28 02:09:52 GMT 41.483879 -81.740791 2,800 231 166 -896
2020-10-28 02:09:43 GMT 41.487808 -81.734474 2,825 231 160 -832
2020-10-28 02:09:32 GMT 41.493126 -81.726021 3,000 230 163 -832
2020-10-28 02:09:24 GMT 41.497223 -81.719505 3,125 230 164 -1024
2020-10-28 02:09:13 GMT 41.502777 -81.710625 3,350 231 169 -960
2020-10-28 02:09:01 GMT 41.508728 -81.701012 3,550 231 177 -1152
2020-10-28 02:08:53 GMT 41.513561 -81.693253 3,700 231 179 -768
2020-10-28 02:08:43 GMT 41.518250 -81.685722 3,775 231 177 -192
2020-10-28 02:08:40 GMT 41.519894 -81.683159 3,775 231 177 -192
2020-10-28 02:08:32 GMT 41.524338 -81.676109 3,800 231 174 0
2020-10-28 02:08:22 GMT 41.529739 -81.667435 3,800 231 177 0
2020-10-28 02:08:13 GMT 41.534317 -81.660255 3,800 230 178 0
2020-10-28 02:08:08 GMT 41.536469 -81.656883 3,800 230 179 -64
2020-10-28 02:08:01 GMT 41.540611 -81.650391 3,800 230 180 0
2020-10-28 02:07:51 GMT 41.546196 -81.641769 3,800 230 181 0
2020-10-28 02:07:40 GMT 41.551876 -81.632950 3,800 230 182 -64
2020-10-28 02:07:32 GMT 41.556656 -81.625549 3,800 230 180 0
2020-10-28 02:07:29 GMT 41.557755 -81.623802 3,800 230 180 64
2020-10-28 02:07:21 GMT 41.562164 -81.616859 3,800 230 175 0
2020-10-28 02:07:09 GMT 41.568420 -81.607010 3,800 231 176 0
2020-10-28 02:06:59 GMT 41.573895 -81.598335 3,800 231 175 0
2020-10-28 02:06:48 GMT 41.579224 -81.589714 3,800 231 176 0
2020-10-28 02:06:38 GMT 41.584415 -81.580963 3,800 233 176 0
2020-10-28 02:06:28 GMT 41.589523 -81.572052 3,800 233 175 64
2020-10-28 02:06:22 GMT 41.594147 -81.564484 3,800 231 186 -192
2020-10-28 02:06:17 GMT 41.594925 -81.563187 3,800 231 182 -64
2020-10-28 02:06:07 GMT 41.600662 -81.553879 3,825 231 188 -256
2020-10-28 02:05:56 GMT 41.606621 -81.544296 3,800 231 196 64
2020-10-28 02:05:46 GMT 41.612457 -81.534973 3,800 231 202 -64
2020-10-28 02:05:36 GMT 41.619003 -81.524422 3,800 231 206 0
2020-10-28 02:05:25 GMT 41.625458 -81.514061 3,825 230 206 0
2020-10-28 02:05:15 GMT 41.631363 -81.504700 3,825 231 205 0
2020-10-28 02:05:06 GMT 41.637764 -81.494476 3,800 231 204 0
2020-10-28 02:04:54 GMT 41.644226 -81.484032 3,825 231 203 0
2020-10-28 02:04:44 GMT 41.650085 -81.473923 3,800 238 203 0
2020-10-28 02:04:34 GMT 41.655075 -81.461815 3,800 248 203 128
2020-10-28 02:04:23 GMT 41.658436 -81.449570 3,800 255 205 -64
2020-10-28 02:04:13 GMT 41.660435 -81.437370 3,850 262 209 -640
2020-10-28 02:04:04 GMT 41.661484 -81.424423 3,950 268 207 -320
2020-10-28 02:03:53 GMT 41.661598 -81.411568 3,950 275 205 64
2020-10-28 02:03:42 GMT 41.659286 -81.398888 3,950 301 210 0
2020-10-28 02:03:32 GMT 41.652145 -81.387779 3,950 329 217 0
2020-10-28 02:03:21 GMT 41.643082 -81.382477 3,975 350 222 0
2020-10-28 02:03:11 GMT 41.632782 -81.382538 3,975 13 227 0
2020-10-28 02:03:02 GMT 41.622726 -81.388573 3,975 39 229 64
2020-10-28 02:02:50 GMT 41.614792 -81.400078 3,975 53 228 0
2020-10-28 02:02:40 GMT 41.608810 -81.411118 3,975 53 226 0
2020-10-28 02:02:29 GMT 41.601639 -81.424149 3,975 53 224 0
2020-10-28 02:02:19 GMT 41.595776 -81.434814 3,975 53 223 0
2020-10-28 02:02:09 GMT 41.589909 -81.445419 3,950 53 221 0
2020-10-28 02:02:00 GMT 41.583664 -81.456818 3,950 54 223 0
2020-10-28 02:01:53 GMT 41.580086 -81.463432 3,950 53 224 0
2020-10-28 02:01:48 GMT 41.577152 -81.468796 3,975 54 224 0
2020-10-28 02:01:44 GMT 41.573849 -81.474869 3,975 53 225 0
2020-10-28 02:01:38 GMT 41.570938 -81.480164 3,975 53 226 0
2020-10-28 02:01:33 GMT 41.567596 -81.486282 3,975 53 227 -64
2020-10-28 02:01:29 GMT 41.564713 -81.491463 3,975 53 228 -64
2020-10-28 02:01:22 GMT 41.561047 -81.498116 3,975 53 227 0
2020-10-28 02:01:17 GMT 41.557926 -81.503738 3,975 53 226 0
2020-10-28 02:01:11 GMT 41.553783 -81.511147 3,975 53 224 64
2020-10-28 02:01:08 GMT 41.551785 -81.514656 3,975 53 223 0
2020-10-28 02:01:01 GMT 41.546677 -81.523796 3,975 53 223 0
2020-10-28 02:00:58 GMT 41.545303 -81.526230 3,975 53 223 0
2020-10-28 02:00:52 GMT 41.542236 -81.531723 3,975 53 223 0
2020-10-28 02:00:46 GMT 41.538841 -81.537781 3,975 53 223 0
2020-10-28 02:00:41 GMT 41.535629 -81.543526 3,975 53 223 0
2020-10-28 02:00:36 GMT 41.532120 -81.549889 3,950 53 223 0
2020-10-28 02:00:31 GMT 41.529648 -81.554321 3,950 53 224 0
2020-10-28 02:00:26 GMT 41.525620 -81.561539 3,950 53 225 0
2020-10-28 02:00:21 GMT 41.523422 -81.565437 3,975 53 225 0
2020-10-28 02:00:16 GMT 41.519806 -81.571922 3,975 53 226 0
2020-10-28 02:00:12 GMT 41.516773 -81.577446 3,975 53 226 -64
2020-10-28 02:00:05 GMT 41.512939 -81.584282 3,975 53 227 0
2020-10-28 02:00:01 GMT 41.510349 -81.588882 3,975 53 227 0
2020-10-28 01:59:56 GMT 41.506622 -81.595459 3,975 53 227 0
2020-10-28 01:59:50 GMT 41.503830 -81.600388 3,975 53 227 0
2020-10-28 01:59:44 GMT 41.500065 -81.607018 3,975 52 228 -64
2020-10-28 01:59:40 GMT 41.497643 -81.611237 4,100 43 228 -800
2020-10-28 01:59:37 GMT 41.496300 -81.617592 4,100 43 228 -800
2020-10-28 01:59:34 GMT 41.494019 -81.620522 4,100 43 228 -800
2020-10-28 01:59:31 GMT 41.491730 -81.623459 4,100 43 228 -800
2020-10-28 01:59:28 GMT 41.489449 -81.626389 4,100 43 228 -800
2020-10-28 01:59:25 GMT 41.487160 -81.629318 4,100 43 228 -800
2020-10-28 01:59:22 GMT 41.484879 -81.632248 4,100 43 228 -800
2020-10-28 01:59:19 GMT 41.482590 -81.635178 4,100 43 228 -800
2020-10-28 01:59:16 GMT 41.480309 -81.638107 4,100 43 228 -800
2020-10-28 01:59:13 GMT 41.478020 -81.641037 4,100 43 228 -800
2020-10-28 01:59:10 GMT 41.475739 -81.643967 4,100 43 228 -800
2020-10-28 01:59:07 GMT 41.473530 -81.646759 4,100 43 231 -800
2020-10-28 01:59:04 GMT 41.471230 -81.649727 4,100 43 231 -800
2020-10-28 01:59:01 GMT 41.468979 -81.652618 4,100 43 232 -800
2020-10-28 01:58:58 GMT 41.466751 -81.655701 4,100 43 232 -800
2020-10-28 01:58:55 GMT 41.464420 -81.658669 4,200 43 232 -800
2020-10-28 01:58:52 GMT 41.462200 -81.661591 4,200 43 234 -992
2020-10-28 01:58:49 GMT 41.460018 -81.664627 4,400 42 235 -992
2020-10-28 01:58:46 GMT 41.457630 -81.667603 4,400 42 235 -992
2020-10-28 01:58:43 GMT 41.455318 -81.670708 4,400 42 235 -992
2020-10-28 01:58:40 GMT 41.452942 -81.673828 4,400 42 235 -992
2020-10-28 01:58:37 GMT 41.450520 -81.676682 4,400 41 233 -992
2020-10-28 01:58:34 GMT 41.448231 -81.679771 4,500 42 232 -992
2020-10-28 01:58:31 GMT 41.445381 -81.681870 4,500 49 234 -992
2020-10-28 01:58:28 GMT 41.443062 -81.684898 4,500 49 234 -992
2020-10-28 01:58:25 GMT 41.439449 -81.687393 4,600 61 218 -992
2020-10-28 01:58:22 GMT 41.437752 -81.690712 4,700 75 224 -992
2020-10-28 01:58:19 GMT 41.434639 -81.693123 4,700 75 224 -992
2020-10-28 01:58:16 GMT 41.432499 -81.696320 4,700 80 230 -992
2020-10-28 01:58:13 GMT 41.431919 -81.700493 4,700 80 230 -992
2020-10-28 01:58:10 GMT 41.430710 -81.704308 4,900 83 234 -992
2020-10-28 01:58:07 GMT 41.430080 -81.708366 4,900 84 237 -992
2020-10-28 01:58:03 GMT 41.429680 -81.713821 4,900 84 241 -992
2020-10-28 01:58:00 GMT 41.429340 -81.718246 4,900 84 241 -992
2020-10-28 01:57:57 GMT 41.429050 -81.722427 5,000 83 246 -992
2020-10-28 01:57:54 GMT 41.428699 -81.726822 5,000 83 247 -992
2020-10-28 01:57:51 GMT 41.428341 -81.731361 5,000 83 246 -32
2020-10-28 01:57:48 GMT 41.428001 -81.735870 5,075 83 247 -32
2020-10-28 01:57:45 GMT 41.427608 -81.740410 5,075 84 245 -32
2020-10-28 01:57:42 GMT 41.426922 -81.749413 5,200 83 248 -32
2020-10-28 01:57:39 GMT 41.426922 -81.749413 5,200 83 248 -32
2020-10-28 01:57:36 GMT 41.426609 -81.753754 5,250 83 251 -32
2020-10-28 01:57:33 GMT 41.426189 -81.758438 5,300 84 249 -32
2020-10-28 01:57:30 GMT 41.425411 -81.767937 5,400 84 241 -32
2020-10-28 01:57:27 GMT 41.425411 -81.767937 5,425 84 246 -32
2020-10-28 01:57:24 GMT 41.424839 -81.772469 5,475 88 240 -32
2020-10-28 01:57:21 GMT 41.424690 -81.776672 5,525 89 247 -32
2020-10-28 01:57:18 GMT 41.424480 -81.781342 5,600 94 244 -32
2020-10-28 01:57:15 GMT 41.424568 -81.786041 5,650 96 246 -32
2020-10-28 01:57:12 GMT 41.424339 -81.791321 5,725 109 237 -32
2020-10-28 01:57:09 GMT 41.424801 -81.796371 5,825 119 228 -32
2020-10-28 01:57:06 GMT 41.425861 -81.800789 5,925 125 225 -32
2020-10-28 01:57:03 GMT 41.426880 -81.805092 5,925 133 223 -32
2020-10-28 01:57:00 GMT 41.428909 -81.808273 5,950 138 240 -32
2020-10-28 01:56:57 GMT 41.431091 -81.811569 5,950 144 243 0
2020-10-28 01:56:54 GMT 41.433441 -81.814751 5,950 147 247 0
2020-10-28 01:56:51 GMT 41.435879 -81.817596 5,950 151 250 -160
2020-10-28 01:56:48 GMT 41.438648 -81.820213 5,950 156 259 -160
2020-10-28 01:56:45 GMT 41.441681 -81.822189 5,950 166 262 -160
2020-10-28 01:56:42 GMT 41.444859 -81.823738 5,950 168 265 -160
2020-10-28 01:56:39 GMT 41.448132 -81.824951 5,950 168 270 -160
2020-10-28 01:56:36 GMT 41.451809 -81.825851 5,950 169 274 288
2020-10-28 01:56:33 GMT 41.455650 -81.826828 5,950 170 273 -64
2020-10-28 01:56:30 GMT 41.459110 -81.828072 5,950 173 273 -64
2020-10-28 01:56:27 GMT 41.466621 -81.829536 6,000 180 267 32
2020-10-28 01:56:24 GMT 41.466621 -81.829536 5,950 186 262 -64
2020-10-28 01:56:21 GMT 41.470558 -81.829308 5,950 195 259 -64
2020-10-28 01:56:18 GMT 41.473930 -81.828598 5,975 196 260 -64
2020-10-28 01:56:15 GMT 41.477390 -81.827309 5,975 196 258 -64
2020-10-28 01:56:12 GMT 41.484329 -81.824722 5,975 197 261 -64
2020-10-28 01:56:09 GMT 41.484329 -81.824722 5,975 197 262 -64
2020-10-28 01:56:06 GMT 41.487930 -81.823334 5,975 197 260 -64
2020-10-28 01:56:03 GMT 41.489590 -81.822594 5,975 197 265 0
2020-10-28 01:55:57 GMT 41.496780 -81.819740 5,975 197 263 0
2020-10-28 01:55:54 GMT 41.501907 -81.817680 5,975 197 263 64
2020-10-28 01:55:46 GMT 41.509701 -81.814484 5,975 198 261 0
2020-10-28 01:55:43 GMT 41.513763 -81.812874 5,975 197 261 64
2020-10-28 01:55:38 GMT 41.520721 -81.810066 5,975 197 259 0
2020-10-28 01:55:32 GMT 41.525986 -81.808006 5,975 197 258 0
2020-10-28 01:55:26 GMT 41.533310 -81.805008 5,975 197 257 64
2020-10-28 01:55:23 GMT 41.537201 -81.803452 5,975 198 255 64
2020-10-28 01:55:15 GMT 41.544846 -81.800331 5,975 198 253 64
2020-10-28 01:55:12 GMT 41.549103 -81.798584 5,975 198 252 0
2020-10-28 01:55:07 GMT 41.556015 -81.795708 5,975 197 249 0
2020-10-28 01:55:01 GMT 41.560684 -81.793900 5,975 197 249 0
2020-10-28 01:54:55 GMT 41.567657 -81.791107 5,950 197 249 64
2020-10-28 01:54:51 GMT 41.571613 -81.789444 5,950 197 249 0
2020-10-28 01:54:42 GMT 41.583393 -81.784721 5,975 197 250 -64
2020-10-28 01:54:35 GMT 41.591633 -81.781334 5,975 198 252 0
2020-10-28 01:54:30 GMT 41.595062 -81.779915 5,975 198 252 0
2020-10-28 01:54:25 GMT 41.602020 -81.777046 5,975 197 253 0
2020-10-28 01:54:21 GMT 41.605865 -81.775543 5,975 197 254 0
2020-10-28 01:54:09 GMT 41.619053 -81.770157 5,950 197 256 0
2020-10-28 01:54:03 GMT 41.625660 -81.767532 5,950 197 256 64
2020-10-28 01:54:00 GMT 41.630409 -81.765617 5,950 197 257 0
2020-10-28 01:53:53 GMT 41.638504 -81.762314 5,950 198 258 0
2020-10-28 01:53:42 GMT 41.649868 -81.757698 5,975 198 259 -64
2020-10-28 01:53:30 GMT 41.663681 -81.751953 6,000 198 257 -192
2020-10-28 01:53:23 GMT 41.672562 -81.748329 6,000 198 256 -64
2020-10-28 01:53:09 GMT 41.687809 -81.741920 6,025 198 254 0
2020-10-28 01:53:02 GMT 41.695629 -81.738602 6,050 201 252 -384
2020-10-28 01:52:52 GMT 41.706757 -81.732353 6,175 206 255 -1472
2020-10-28 01:52:41 GMT 41.718208 -81.724548 6,575 210 255 -1856
2020-10-28 01:52:35 GMT 41.724770 -81.719566 6,750 212 256 -1536
2020-10-28 01:52:27 GMT 41.731979 -81.713623 6,925 215 257 -2176
2020-10-28 01:52:17 GMT 41.742508 -81.704048 7,325 216 257 -2368
2020-10-28 01:52:07 GMT 41.751434 -81.695335 7,725 218 254 -2688
2020-10-28 01:52:00 GMT 41.758575 -81.687843 8,525 199 266 -2752
2020-10-28 01:51:53 GMT 41.764389 -81.682472 8,150 213 255 -2112
2020-10-28 01:51:50 GMT 41.768856 -81.679642 8,400 201 264 -2624
2020-10-28 01:51:45 GMT 41.773090 -81.677856 8,550 189 273 -2624
2020-10-28 01:51:36 GMT 41.785755 -81.676193 8,900 181 282 -1536
2020-10-28 01:51:26 GMT 41.798512 -81.675362 9,475 199 262 -2944
2020-10-28 01:51:19 GMT 41.807144 -81.672112 9,600 204 256 -2496
2020-10-28 01:51:12 GMT 41.813324 -81.667747 9,750 214 249 -1408
2020-10-28 01:51:08 GMT 41.817364 -81.663551 9,825 225 242 -768
2020-10-28 01:51:04 GMT 41.821133 -81.658058 9,900 234 237 -576
2020-10-28 01:50:53 GMT 41.825745 -81.645470 9,975 252 228 -576
2020-10-28 01:50:48 GMT 41.826534 -81.637169 10,000 274 227 -128
2020-10-28 01:50:40 GMT 41.825546 -81.627235 10,000 282 228 -128
2020-10-28 01:50:37 GMT 41.824539 -81.622612 10,000 288 230 0
2020-10-28 01:50:25 GMT 41.820969 -81.607384 10,000 288 230 64
2020-10-28 01:50:22 GMT 41.819641 -81.601639 10,000 288 229 0
2020-10-28 01:50:17 GMT 41.817875 -81.593925 10,000 288 229 -64
2020-10-28 01:50:12 GMT 41.816711 -81.588905 10,000 287 227 -64
2020-10-28 01:50:06 GMT 41.814987 -81.581215 10,025 287 227 -128
2020-10-28 01:50:03 GMT 41.813873 -81.576363 10,025 287 225 -384
2020-10-28 01:49:55 GMT 41.811722 -81.566872 10,075 287 223 -512
2020-10-28 01:49:52 GMT 41.810333 -81.560715 10,100 287 220 -640
2020-10-28 01:49:46 GMT 41.808792 -81.553764 10,150 287 224 -384
2020-10-28 01:49:40 GMT 41.807144 -81.546516 10,225 287 229 -1344
2020-10-28 01:49:35 GMT 41.805634 -81.539650 10,375 287 235 -2304
2020-10-28 01:49:30 GMT 41.804188 -81.533051 10,575 286 237 -2880
2020-10-28 01:49:25 GMT 41.802467 -81.525131 10,875 287 236 -3712
2020-10-28 01:49:21 GMT 41.801022 -81.518684 11,150 287 236 -3648
2020-10-28 01:49:14 GMT 41.799133 -81.510437 11,500 287 235 -3648
2020-10-28 01:49:06 GMT 41.796459 -81.498627 11,950 287 236 -2944
2020-10-28 01:49:03 GMT 41.795624 -81.494987 12,075 288 237 -2752
2020-10-28 01:48:59 GMT 41.794273 -81.489365 12,250 288 239 -3136
2020-10-28 01:48:53 GMT 41.792366 -81.481186 12,575 270 238 -2944
2020-10-28 01:48:50 GMT 41.790874 -81.474419 13,000 286 237 -3520
2020-10-28 01:48:42 GMT 41.789246 -81.465683 13,200 281 237 -2880
2020-10-28 01:48:39 GMT 41.788559 -81.460503 13,525 272 238 -3072
2020-10-28 01:48:33 GMT 41.787918 -81.451385 13,675 273 238 -3136
2020-10-28 01:48:29 GMT 41.787827 -81.445518 13,875 268 239 -2944
2020-10-28 01:48:22 GMT 41.788193 -81.436409 14,125 260 241 -2752
2020-10-28 01:48:18 GMT 41.788925 -81.429604 15,425 241 247 -3520
2020-10-28 01:48:13 GMT 41.790482 -81.421425 14,650 251 244 -3200
2020-10-28 01:48:08 GMT 41.792175 -81.415184 15,425 241 247 -3520
2020-10-28 01:48:02 GMT 41.794926 -81.407349 15,225 241 247 -3520
2020-10-28 01:47:58 GMT 41.797577 -81.400902 15,500 239 248 -3392
2020-10-28 01:47:51 GMT 41.801441 -81.392914 15,825 235 250 -3200
2020-10-28 01:47:47 GMT 41.804489 -81.387527 15,975 231 253 -3264
2020-10-28 01:47:44 GMT 41.808838 -81.380913 16,625 226 256 -3840
2020-10-28 01:47:37 GMT 41.812408 -81.376228 16,625 223 258 -3840
2020-10-28 01:47:33 GMT 41.816479 -81.371513 16,975 221 259 -3840
2020-10-28 01:47:30 GMT 41.820110 -81.367744 17,150 215 263 -3328
2020-10-28 01:47:27 GMT 41.822617 -81.365433 17,300 211 269 -2944
2020-10-28 01:47:23 GMT 41.825958 -81.362564 17,425 210 271 -3072
2020-10-28 01:47:20 GMT 41.829094 -81.360214 17,575 208 273 -3328
2020-10-28 01:47:16 GMT 41.834106 -81.357071 17,750 201 281 -3584
2020-10-28 01:47:12 GMT 41.839523 -81.354843 17,975 195 290 -3328
2020-10-28 01:47:08 GMT 41.843948 -81.353638 18,275 184 308 -2752
2020-10-28 01:47:05 GMT 41.847946 -81.353058 18,400 181 314 -2688
2020-10-28 01:47:02 GMT 41.853882 -81.352882 18,525 177 319 -2688
2020-10-28 01:46:58 GMT 41.858517 -81.353310 18,775 168 336 -2944
2020-10-28 01:46:55 GMT 41.862900 -81.354256 18,850 165 342 -2944
2020-10-28 01:46:52 GMT 41.867641 -81.355743 18,950 164 345 -2880
2020-10-28 01:46:48 GMT 41.874573 -81.358757 19,200 156 360 -2240
2020-10-28 01:46:45 GMT 41.879604 -81.361679 19,200 156 360 -2240
2020-10-28 01:46:41 GMT 41.883728 -81.364433 19,350 150 374 -2048
2020-10-28 01:46:38 GMT 41.894257 -81.373924 19,675 141 387 -2368
2020-10-28 01:46:35 GMT 41.894257 -81.373924 19,650 137 393 -2048
2020-10-28 01:46:32 GMT 41.898502 -81.378799 19,725 137 393 -2048
2020-10-28 01:46:27 GMT 41.904556 -81.386589 20,075 135 398 -2432
2020-10-28 01:46:24 GMT 41.914352 -81.399704 20,075 135 398 -2240
2020-10-28 01:46:19 GMT 41.914352 -81.399704 20,225 136 396 -2752
2020-10-28 01:46:16 GMT 41.919872 -81.406967 20,325 136 395 -2944
2020-10-28 01:46:12 GMT 41.925247 -81.413559 20,525 138 392 -3008
2020-10-28 01:46:08 GMT 41.930531 -81.419739 20,675 140 388 -2752
2020-10-28 01:46:05 GMT 41.933884 -81.423447 20,775 140 388 -2560
2020-10-28 01:46:02 GMT 41.940353 -81.430283 20,900 142 386 -1152
2020-10-28 01:45:58 GMT 41.943924 -81.433846 20,925 143 387 -704
2020-10-28 01:45:55 GMT 41.948360 -81.438332 20,975 141 395 -576
2020-10-28 01:45:49 GMT 41.956322 -81.447205 21,025 136 405 -1088
2020-10-28 01:45:46 GMT 41.961777 -81.454575 21,150 128 420 -1792
2020-10-28 01:45:43 GMT 41.968460 -81.466118 21,200 127 422 -1920
2020-10-28 01:45:40 GMT 41.968460 -81.466118 21,300 123 427 -2176
2020-10-28 01:45:37 GMT 41.971664 -81.472862 21,425 112 439 -2560
2020-10-28 01:45:33 GMT 41.975830 -81.483345 21,625 113 438 -2624
2020-10-28 01:45:29 GMT 41.980270 -81.498581 21,825 109 441 -2304
2020-10-28 01:45:26 GMT 41.980270 -81.498581 21,900 106 443 -1600
2020-10-28 01:45:23 GMT 41.982113 -81.506737 21,950 104 443 -960
2020-10-28 01:45:19 GMT 41.984066 -81.516319 21,975 104 444 -576
2020-10-28 01:45:16 GMT 41.985443 -81.523483 22,000 105 442 -128
2020-10-28 01:45:12 GMT 41.988209 -81.536377 22,000 110 435 64
2020-10-28 01:45:09 GMT 41.989975 -81.543396 22,000 110 435 64
2020-10-28 01:45:06 GMT 41.991886 -81.550240 22,000 110 437 64
2020-10-28 01:45:03 GMT 41.994644 -81.560127 22,000 110 437 0
2020-10-28 01:44:59 GMT 41.997147 -81.569016 22,000 110 437 -64
2020-10-28 01:44:54 GMT 42.001572 -81.584793 22,000 110 437 -64
2020-10-28 01:44:50 GMT 42.003433 -81.591370 22,000 110 436 -128
2020-10-28 01:44:47 GMT 42.005493 -81.598701 22,000 110 436 -128
2020-10-28 01:44:44 GMT 42.008194 -81.608315 22,025 110 436 0
2020-10-28 01:44:41 GMT 42.010345 -81.615936 22,025 110 435 0
2020-10-28 01:44:38 GMT 42.011532 -81.620239 22,000 110 435 64
2020-10-28 01:44:35 GMT 42.013733 -81.628105 22,000 110 435 64
2020-10-28 01:44:32 GMT 42.017071 -81.639977 22,000 110 435 0
2020-10-28 01:44:27 GMT 42.019958 -81.650330 22,000 110 435 64
2020-10-28 01:44:24 GMT 42.021446 -81.655693 22,000 110 435 64
2020-10-28 01:44:21 GMT 42.023621 -81.663498 22,000 110 435 128
2020-10-28 01:44:18 GMT 42.026733 -81.674675 22,000 110 436 64
2020-10-28 01:44:15 GMT 42.028244 -81.679962 22,000 110 436 0
2020-10-28 01:44:10 GMT 42.032619 -81.695679 22,000 110 435 0
2020-10-28 01:44:04 GMT 42.035740 -81.706856 22,000 110 436 0
2020-10-28 01:44:01 GMT 42.038773 -81.717804 22,000 110 436 64
2020-10-28 01:43:58 GMT 42.040146 -81.722862 22,000 110 436 64
2020-10-28 01:43:55 GMT 42.043003 -81.733299 22,000 110 438 0
2020-10-28 01:43:51 GMT 42.045593 -81.742775 22,000 109 438 0
2020-10-28 01:43:48 GMT 42.046913 -81.747604 22,000 109 438 0
2020-10-28 01:43:44 GMT 42.049896 -81.759193 22,000 108 440 -64
2020-10-28 01:43:40 GMT 42.052498 -81.769836 22,025 106 441 -64
2020-10-28 01:43:36 GMT 42.056828 -81.789894 22,000 105 443 0
2020-10-28 01:43:29 GMT 42.058868 -81.800270 22,000 103 444 64
2020-10-28 01:43:24 GMT 42.061390 -81.814484 22,000 102 445 128
2020-10-28 01:43:20 GMT 42.063065 -81.824768 22,000 101 446 64
2020-10-28 01:43:16 GMT 42.064865 -81.837036 22,000 100 448 64
2020-10-28 01:43:13 GMT 42.065506 -81.841965 22,000 99 448 64
2020-10-28 01:43:09 GMT 42.067154 -81.854576 22,000 100 448 -64
2020-10-28 01:43:06 GMT 42.068001 -81.860916 22,000 99 446 -64
2020-10-28 01:43:02 GMT 42.069351 -81.871330 22,000 99 447 -192
2020-10-28 01:42:58 GMT 42.070816 -81.882538 22,025 99 447 -192
2020-10-28 01:42:53 GMT 42.073013 -81.899452 22,025 99 445 192
2020-10-28 01:42:47 GMT 42.074478 -81.910942 22,025 99 443 768
2020-10-28 01:42:44 GMT 42.076893 -81.929649 21,900 99 442 1280
2020-10-28 01:42:41 GMT 42.076893 -81.929649 21,900 99 442 1216
2020-10-28 01:42:38 GMT 42.078140 -81.939095 21,825 99 442 1152
2020-10-28 01:42:32 GMT 42.079926 -81.953201 21,750 99 442 896
2020-10-28 01:42:29 GMT 42.080978 -81.961319 21,700 99 440 640
2020-10-28 01:42:25 GMT 42.082851 -81.975571 21,250 99 440 640
2020-10-28 01:42:22 GMT 42.083954 -81.983910 21,575 99 436 896
2020-10-28 01:42:16 GMT 42.085373 -81.995209 21,575 99 437 768
2020-10-28 01:42:13 GMT 42.086563 -82.004326 21,525 99 436 896
2020-10-28 01:42:07 GMT 42.089043 -82.023735 21,425 99 434 1024
2020-10-28 01:42:03 GMT 42.091141 -82.040527 21,350 99 433 1024
2020-10-28 01:41:59 GMT 42.091141 -82.040527 21,275 99 432 1088
2020-10-28 01:41:56 GMT 42.092148 -82.049019 21,275 99 432 1088
2020-10-28 01:41:53 GMT 42.093430 -82.059631 21,175 99 432 1600
2020-10-28 01:41:50 GMT 42.094490 -82.068382 21,100 99 432 1728
2020-10-28 01:41:45 GMT 42.095673 -82.078232 21,000 99 433 1792
2020-10-28 01:41:42 GMT 42.096954 -82.088348 20,875 99 435 1728
2020-10-28 01:41:39 GMT 42.097870 -82.095772 20,725 99 435 1280
2020-10-28 01:41:36 GMT 42.099014 -82.104889 20,750 99 435 1216
2020-10-28 01:41:33 GMT 42.099751 -82.110474 20,675 99 434 960
2020-10-28 01:41:29 GMT 42.101212 -82.121925 20,625 99 434 960
2020-10-28 01:41:25 GMT 42.102589 -82.132828 20,600 99 434 1024
2020-10-28 01:41:17 GMT 42.105331 -82.154327 20,400 99 433 1024
2020-10-28 01:41:14 GMT 42.106033 -82.159912 20,400 99 433 1024
2020-10-28 01:41:08 GMT 42.108215 -82.177109 20,275 99 430 832
2020-10-28 01:41:05 GMT 42.109634 -82.188225 20,275 99 430 832
2020-10-28 01:41:01 GMT 42.110825 -82.197647 20,200 99 429 960
2020-10-28 01:40:58 GMT 42.111694 -82.204514 20,150 99 429 1024
2020-10-28 01:40:54 GMT 42.113014 -82.214714 20,075 99 427 1024
2020-10-28 01:40:44 GMT 42.116409 -82.241653 19,925 99 425 1024
2020-10-28 01:40:39 GMT 42.118229 -82.255981 19,825 99 424 1088
2020-10-28 01:40:35 GMT 42.120277 -82.272652 19,725 99 423 1088
2020-10-28 01:40:32 GMT 42.120277 -82.272652 19,700 99 423 1344
2020-10-28 01:40:23 GMT 42.123119 -82.295517 19,475 99 423 1536
2020-10-28 01:40:17 GMT 42.125401 -82.313660 19,425 99 423 1344
2020-10-28 01:40:14 GMT 42.126190 -82.319916 19,300 99 423 960
2020-10-28 01:40:11 GMT 42.126846 -82.325363 19,300 99 423 832
2020-10-28 01:40:06 GMT 42.128658 -82.339592 19,225 99 420 640
2020-10-28 01:40:03 GMT 42.129589 -82.346809 19,200 99 419 704
2020-10-28 01:40:00 GMT 42.130707 -82.356071 19,150 99 415 1216
2020-10-28 01:39:57 GMT 42.131359 -82.361183 19,125 99 417 960
2020-10-28 01:39:54 GMT 42.132523 -82.370682 19,000 99 415 1344
2020-10-28 01:39:51 GMT 42.133118 -82.375740 19,000 99 415 1344
2020-10-28 01:39:47 GMT 42.134857 -82.390030 18,900 99 415 1472
2020-10-28 01:39:42 GMT 42.136230 -82.401772 18,800 98 414 1600
2020-10-28 01:39:39 GMT 42.136963 -82.407883 18,725 98 414 1600
2020-10-28 01:39:36 GMT 42.137650 -82.414505 18,675 96 415 1152
2020-10-28 01:39:31 GMT 42.139023 -82.428360 18,450 96 415 1152
2020-10-28 01:39:27 GMT 42.140121 -82.441154 18,450 95 414 960
2020-10-28 01:39:20 GMT 42.141228 -82.456291 18,350 94 413 1280
2020-10-28 01:39:16 GMT 42.141769 -82.466751 18,250 93 411 1472
2020-10-28 01:39:10 GMT 42.142391 -82.482414 18,100 91 412 1792
2020-10-28 01:39:06 GMT 42.142670 -82.495186 17,925 90 413 2112
2020-10-28 01:39:02 GMT 42.142761 -82.501892 17,800 90 414 2048
2020-10-28 01:38:59 GMT 42.142776 -82.510384 17,800 90 414 2048
2020-10-28 01:38:50 GMT 42.142776 -82.535667 17,475 89 416 2048
2020-10-28 01:38:44 GMT 42.142811 -82.551971 17,000 90 419 1984
2020-10-28 01:38:39 GMT 42.142811 -82.562386 17,050 90 418 2048
2020-10-28 01:38:33 GMT 42.142822 -82.580856 16,825 89 420 2048
2020-10-28 01:38:29 GMT 42.142731 -82.589226 16,725 88 420 2048
2020-10-28 01:38:22 GMT 42.141861 -82.609634 16,425 83 422 2112
2020-10-28 01:38:19 GMT 42.141273 -82.616676 16,425 83 422 2112
2020-10-28 01:38:11 GMT 42.138107 -82.643120 16,075 78 424 2048
2020-10-28 01:38:08 GMT 42.138107 -82.643120 16,025 77 424 2112
2020-10-28 01:38:01 GMT 42.134384 -82.663116 15,750 74 424 2048
2020-10-28 01:37:58 GMT 42.132980 -82.669434 15,675 72 424 2112
2020-10-28 01:37:53 GMT 42.130005 -82.681419 14,650 71 426 1280
2020-10-28 01:37:48 GMT 42.126480 -82.695465 15,325 71 426 2048
2020-10-28 01:37:37 GMT 42.119953 -82.721367 15,000 71 428 1920
2020-10-28 01:37:29 GMT 42.114853 -82.741783 14,750 71 428 1664
2020-10-28 01:37:26 GMT 42.113342 -82.747902 14,700 71 428 1600
2020-10-28 01:37:22 GMT 42.110733 -82.758514 14,575 71 427 1408
2020-10-28 01:37:17 GMT 42.106873 -82.773872 14,450 71 427 1408
2020-10-28 01:37:08 GMT 42.101212 -82.796715 14,275 71 423 1280
2020-10-28 01:37:05 GMT 42.099747 -82.802704 14,100 71 423 1536
2020-10-28 01:37:02 GMT 42.097366 -82.812195 14,100 71 423 1536
2020-10-28 01:36:59 GMT 42.095398 -82.820183 13,975 71 422 1536
2020-10-28 01:36:56 GMT 42.093838 -82.826439 13,975 71 422 1472
2020-10-28 01:36:53 GMT 42.092926 -82.830170 13,925 71 422 1344
2020-10-28 01:36:45 GMT 42.087433 -82.851959 13,750 71 419 1088
2020-10-28 01:36:42 GMT 42.085133 -82.861122 13,700 71 418 1280
2020-10-28 01:36:37 GMT 42.081985 -82.873619 13,550 71 416 1792
2020-10-28 01:36:32 GMT 42.078964 -82.885353 13,400 71 416 1856
2020-10-28 01:36:26 GMT 42.075714 -82.898087 13,250 71 415 1792
2020-10-28 01:36:23 GMT 42.073608 -82.906387 13,200 71 415 1792
2020-10-28 01:36:19 GMT 42.071136 -82.916130 13,025 71 414 1856
2020-10-28 01:36:16 GMT 42.069534 -82.922432 12,950 71 413 1792
2020-10-28 01:36:13 GMT 42.066605 -82.934105 12,825 71 411 1792
2020-10-28 01:36:10 GMT 42.065598 -82.937973 12,775 71 410 1792
2020-10-28 01:36:04 GMT 42.062164 -82.951462 12,650 70 408 1856
2020-10-28 01:36:01 GMT 42.059250 -82.962685 12,450 70 405 2112
2020-10-28 01:35:57 GMT 42.058132 -82.966965 12,400 70 405 2176
2020-10-28 01:35:54 GMT 42.055573 -82.976990 12,250 70 404 2176
2020-10-28 01:35:51 GMT 42.054245 -82.981918 12,125 70 403 2112
2020-10-28 01:35:48 GMT 42.052078 -82.990211 12,075 70 395 2304
2020-10-28 01:35:45 GMT 42.050449 -82.996346 11,975 70 400 1664
2020-10-28 01:35:42 GMT 42.047836 -83.006454 11,775 70 396 2240
2020-10-28 01:35:39 GMT 42.045639 -83.014877 11,750 70 397 2112
2020-10-28 01:35:35 GMT 42.043945 -83.021370 11,650 70 396 2304
2020-10-28 01:35:31 GMT 42.041607 -83.030449 11,500 71 395 2176
2020-10-28 01:35:25 GMT 42.038361 -83.043221 11,275 71 393 1920
2020-10-28 01:35:22 GMT 42.036671 -83.049995 11,075 71 388 1344
2020-10-28 01:35:15 GMT 42.032295 -83.067497 11,025 71 387 1152
2020-10-28 01:35:11 GMT 42.030571 -83.074333 10,975 71 387 1152
2020-10-28 01:35:08 GMT 42.028519 -83.082794 10,900 72 386 1024
2020-10-28 01:35:05 GMT 42.026779 -83.090599 10,825 74 382 896
2020-10-28 01:35:02 GMT 42.025219 -83.098160 10,800 76 381 896
2020-10-28 01:34:53 GMT 42.022110 -83.117691 10,725 79 373 448
2020-10-28 01:34:50 GMT 42.021011 -83.125870 10,700 79 369 512
2020-10-28 01:34:43 GMT 42.017990 -83.148216 10,600 79 361 576
2020-10-28 01:34:40 GMT 42.017990 -83.148216 10,500 80 355 704
2020-10-28 01:34:32 GMT 42.015839 -83.165253 10,500 81 352 832
2020-10-28 01:34:29 GMT 42.015244 -83.170815 10,400 83 347 1088
2020-10-28 01:34:23 GMT 42.014511 -83.183296 10,325 89 342 1280
2020-10-28 01:34:20 GMT 42.014420 -83.189880 10,275 90 340 1344
2020-10-28 01:34:13 GMT 42.014832 -83.204704 10,075 94 333 2048
2020-10-28 01:34:10 GMT 42.015259 -83.211983 10,000 95 331 2432
2020-10-28 01:34:07 GMT 42.015610 -83.216255 9,875 97 330 2880
2020-10-28 01:34:03 GMT 42.016663 -83.225990 9,550 99 332 3136
2020-10-28 01:33:59 GMT 42.017853 -83.235794 9,225 99 333 2880
2020-10-28 01:33:51 GMT 42.019493 -83.249474 9,075 99 333 2880
2020-10-28 01:33:47 GMT 42.020378 -83.256821 8,850 98 333 2816
2020-10-28 01:33:40 GMT 42.015469 -83.333260 8,475 98 334 2368
2020-10-28 01:33:24 GMT 42.015469 -83.333260 7,100 161 280 1568
2020-10-28 01:33:21 GMT 42.019070 -83.335190 7,100 161 280 1568
2020-10-28 01:33:18 GMT 42.022678 -83.337128 7,100 161 280 1568
2020-10-28 01:33:15 GMT 42.026279 -83.339073 7,100 161 280 1568
2020-10-28 01:33:12 GMT 42.029888 -83.341003 7,100 161 280 1568
2020-10-28 01:33:09 GMT 42.033501 -83.342941 7,100 161 280 1568
2020-10-28 01:33:06 GMT 42.037102 -83.344879 7,100 161 280 1568
2020-10-28 01:33:03 GMT 42.040710 -83.346809 7,100 161 280 1568
2020-10-28 01:33:00 GMT 42.044312 -83.348747 7,100 161 280 1568
2020-10-28 01:32:57 GMT 42.047920 -83.350693 7,100 161 280 1568
2020-10-28 01:32:54 GMT 42.051270 -83.355461 6,800 169 272 1568
2020-10-28 01:32:51 GMT 42.054981 -83.356430 6,800 169 272 1568
2020-10-28 01:32:48 GMT 42.058578 -83.358253 6,800 171 273 1568
2020-10-28 01:32:45 GMT 42.062431 -83.359482 6,300 171 270 1568
2020-10-28 01:32:42 GMT 42.066132 -83.360207 6,300 171 270 1568
2020-10-28 01:32:39 GMT 42.069870 -83.361038 6,300 171 268 1568
2020-10-28 01:32:36 GMT 42.077309 -83.362488 6,100 171 267 1536
2020-10-28 01:32:33 GMT 42.077309 -83.362488 6,100 171 267 1536
2020-10-28 01:32:30 GMT 42.081150 -83.363312 5,800 172 263 1536
2020-10-28 01:32:27 GMT 42.084450 -83.363937 5,800 172 263 1536
2020-10-28 01:32:24 GMT 42.088181 -83.364639 5,800 172 271 1536
2020-10-28 01:32:21 GMT 42.091900 -83.365227 5,400 171 269 1536
2020-10-28 01:32:18 GMT 42.095692 -83.366058 5,400 172 263 1536
2020-10-28 01:32:15 GMT 42.099300 -83.366730 5,400 172 263 1536
2020-10-28 01:32:12 GMT 42.103180 -83.367493 5,100 172 248 1536
2020-10-28 01:32:09 GMT 42.106602 -83.368118 4,500 172 242 1536
2020-10-28 01:32:06 GMT 42.110260 -83.368927 4,500 172 242 1536
2020-10-28 01:32:03 GMT 42.114151 -83.369392 4,500 171 226 1536
2020-10-28 01:32:00 GMT 42.117271 -83.369980 4,500 171 226 1536
2020-10-28 01:31:57 GMT 42.120739 -83.370644 4,425 172 256 3840
2020-10-28 01:31:54 GMT 42.123341 -83.371109 3,900 171 221 1536
2020-10-28 01:31:51 GMT 42.126740 -83.371773 3,700 171 254 1536
2020-10-28 01:31:48 GMT 42.130138 -83.372414 3,700 171 254 1536
2020-10-28 01:31:45 GMT 42.133629 -83.373123 3,600 172 259 1536
2020-10-28 01:31:42 GMT 42.140808 -83.374428 3,325 171 260 1536
2020-10-28 01:31:39 GMT 42.140808 -83.374428 3,225 171 263 1536
2020-10-28 01:31:36 GMT 42.144348 -83.375229 3,125 171 254 1536
2020-10-28 01:31:33 GMT 42.147861 -83.375923 3,075 170 261 2688
2020-10-28 01:31:30 GMT 42.151402 -83.376801 2,950 171 250 2688
2020-10-28 01:31:27 GMT 42.154881 -83.377449 2,850 169 247 2688
2020-10-28 01:31:24 GMT 42.158199 -83.378227 2,800 170 243 2688
2020-10-28 01:31:21 GMT 42.161518 -83.378998 2,775 170 240 2688
2020-10-28 01:31:18 GMT 42.164768 -83.379601 2,675 169 234 2688
2020-10-28 01:31:15 GMT 42.167969 -83.380341 2,600 169 222 2688
2020-10-28 01:31:12 GMT 42.171028 -83.381027 2,550 172 221 2688
2020-10-28 01:31:09 GMT 42.174042 -83.381500 2,425 173 218 2688
2020-10-28 01:31:06 GMT 42.176998 -83.381851 2,350 182 212 2688
2020-10-28 01:31:03 GMT 42.179958 -83.381729 2,250 186 209 2688
2020-10-28 01:31:00 GMT 42.182732 -83.381233 2,150 191 203 2688
2020-10-28 01:30:57 GMT 42.185471 -83.380463 2,025 193 197 2688
2020-10-28 01:30:54 GMT 42.188091 -83.379532 1,825 196 193 2688
2020-10-28 01:30:51 GMT 42.190659 -83.378502 1,825 201 189 2688
2020-10-28 01:30:48 GMT 42.193119 -83.377289 1,825 202 182 2688
2020-10-28 01:30:45 GMT 42.195400 -83.375992 1,800 202 179 2688
2020-10-28 01:30:42 GMT 42.197708 -83.374603 1,775 205 176 2688
2020-10-28 01:30:39 GMT 42.199772 -83.373306 1,650 209 154 2688
2020-10-28 01:30:36 GMT 42.201820 -83.371872 1,625 208 143 2688
2020-10-28 01:30:33 GMT 42.203629 -83.370583 1,575 208 151 2688
2020-10-28 01:30:30 GMT 42.205479 -83.369186 1,350 210 145 128
2020-10-28 01:30:27 GMT 42.207272 -83.367783 1,075 210 146 128
2020-10-28 01:30:24 GMT 42.209042 -83.366310 1,075 210 146 128
2020-10-28 01:30:21 GMT 42.210831 -83.364998 1,025 208 140 128
2020-10-28 01:30:18 GMT 42.212639 -83.363571 800 208 146 128
2020-10-28 01:30:15 GMT 42.214432 -83.362213 600 207 140 128
2020-10-28 01:30:12 GMT 42.216209 -83.361008 600 208 153 128
2020-10-28 01:30:09 GMT 42.218048 -83.359650 500 208 149 128
2020-10-28 01:30:06 GMT 42.219860 -83.358337 450 207 149 128
2020-10-28 01:30:03 GMT 42.221611 -83.357101 0 208 133
2020-10-28 01:30:00 GMT 42.223270 -83.355888 0 208 124
2020-10-28 01:29:57 GMT 42.224751 -83.354797 0 209 120
2020-10-28 01:29:54 GMT 42.226131 -83.353760 0 209 101
2020-10-28 01:29:51 GMT 42.227322 -83.352852 0 208 87
2020-10-28 01:29:48 GMT 42.228420 -83.352081 0 208 63
2020-10-28 01:29:45 GMT 42.229912 -83.350960 0 208 37
2020-10-28 01:29:42 GMT 42.229912 -83.350960 0 207 26
2020-10-28 01:29:39 GMT 42.230339 -83.350662 0 208 15
2020-10-28 01:29:36 GMT 42.230549 -83.350533 0 209 12
2020-10-28 01:29:33 GMT 42.230629 -83.350403 0 200 13
2020-10-28 01:29:30 GMT 42.230820 -83.350357 0 222 8
2020-10-28 01:29:27 GMT 42.230968 -83.350304 0 267 9
2020-10-28 01:29:24 GMT 42.231041 -83.350159 0 279 10
2020-10-28 01:29:21 GMT 42.231030 -83.349960 0 296 11
2020-10-28 01:29:18 GMT 42.230980 -83.349777 0 294 11
2020-10-28 01:29:15 GMT 42.230911 -83.349571 0 296 10
2020-10-28 01:29:12 GMT 42.230850 -83.349373 0 325 7
2020-10-28 01:29:09 GMT 42.230789 -83.349289 0 313 8
2020-10-28 01:29:06 GMT 42.230652 -83.349190 0 322 5
2020-10-28 01:29:03 GMT 42.230579 -83.349098 0 327 6
2020-10-28 01:29:00 GMT 42.230518 -83.349060 0 13 4
2020-10-28 01:28:57 GMT 42.230469 -83.348991 0 26 3
2020-10-28 01:28:54 GMT 42.230419 -83.349052 0 10 3
2020-10-28 01:28:51 GMT 42.230350 -83.349060 0 12 3
2020-10-28 01:28:48 GMT 42.230339 -83.349060 0 13 2
2020-10-28 01:28:45 GMT 42.230339 -83.349022 0 17 2
2020-10-28 01:28:42 GMT 42.230251 -83.349068 0 35 4
2020-10-28 01:28:39 GMT 42.230202 -83.349060 0 35 4
2020-10-28 01:28:36 GMT 42.230221 -83.349068 0 21 8
2020-10-28 01:28:33 GMT 42.230080 -83.349113 0 38 5
2020-10-28 01:28:30 GMT 42.230030 -83.349167 0 30 12
2020-10-28 01:28:27 GMT 42.229939 -83.349327 0 24 14
2020-10-28 01:28:24 GMT 42.229710 -83.349411 0 30 21
2020-10-28 01:28:21 GMT 42.229450 -83.349609 0 27 22
2020-10-28 01:28:18 GMT 42.229198 -83.349792 0 31 22
2020-10-28 01:28:15 GMT 42.228920 -83.349983 0 30 23
2020-10-28 01:28:12 GMT 42.228699 -83.350197 0 28 24
2020-10-28 01:28:09 GMT 42.228371 -83.350433 0 27 23
2020-10-28 01:28:06 GMT 42.227810 -83.350838 0 28 24
2020-10-28 01:28:03 GMT 42.227810 -83.350838 0 28 24
2020-10-28 01:28:00 GMT 42.227520 -83.351059 0 27 24
2020-10-28 01:27:57 GMT 42.227230 -83.351257 0 28 24
2020-10-28 01:27:54 GMT 42.226631 -83.351700 0 28 23
2020-10-28 01:27:51 GMT 42.226631 -83.351700 0 28 23
2020-10-28 01:27:48 GMT 42.226341 -83.351913 0 29 22
2020-10-28 01:27:45 GMT 42.226070 -83.352097 0 29 21
2020-10-28 01:27:42 GMT 42.225811 -83.352303 0 29 21
2020-10-28 01:27:39 GMT 42.225571 -83.352501 0 28 21
2020-10-28 01:27:36 GMT 42.225281 -83.352707 0 28 21
2020-10-28 01:27:33 GMT 42.224991 -83.352913 0 26 23
2020-10-28 01:27:30 GMT 42.224758 -83.353081 0 28 23
2020-10-28 01:27:27 GMT 42.224449 -83.353310 0 28 21
2020-10-28 01:27:24 GMT 42.224220 -83.353493 0 28 22
2020-10-28 01:27:21 GMT 42.223621 -83.353912 0 27 23
2020-10-28 01:27:18 GMT 42.223621 -83.353912 0 28 23
2020-10-28 01:27:15 GMT 42.223339 -83.354118 0 28 23
2020-10-28 01:27:12 GMT 42.223061 -83.354332 0 28 22
2020-10-28 01:27:09 GMT 42.222519 -83.354736 0 27 21
2020-10-28 01:27:06 GMT 42.222252 -83.354919 0 31 22
2020-10-28 01:27:03 GMT 42.222252 -83.354919 0 27 22
2020-10-28 01:27:00 GMT 42.221989 -83.355103 0 29 22
2020-10-28 01:26:57 GMT 42.221729 -83.355362 0 34 23
2020-10-28 01:26:54 GMT 42.221180 -83.355682 0 32 22
2020-10-28 01:26:51 GMT 42.221180 -83.355682 0 28 23
2020-10-28 01:26:48 GMT 42.220909 -83.355911 0 28 22
2020-10-28 01:26:45 GMT 42.220669 -83.356087 0 29 24
2020-10-28 01:26:42 GMT 42.220360 -83.356339 0 24 24
2020-10-28 01:26:39 GMT 42.220032 -83.356522 0 31 21
2020-10-28 01:26:36 GMT 42.219791 -83.356712 0 30 22
2020-10-28 01:26:33 GMT 42.219528 -83.356941 0 24 21
2020-10-28 01:26:30 GMT 42.219238 -83.357117 0 28 19
2020-10-28 01:26:27 GMT 42.219009 -83.357300 0 22 21
2020-10-28 01:26:24 GMT 42.218731 -83.357498 0 24 19
2020-10-28 01:26:21 GMT 42.218491 -83.357628 0 39 22
2020-10-28 01:26:18 GMT 42.218239 -83.357841 0 29 19
2020-10-28 01:26:15 GMT 42.217991 -83.357971 0 31 17
2020-10-28 01:26:12 GMT 42.217781 -83.358231 0 36 16
2020-10-28 01:26:09 GMT 42.217579 -83.358398 0 25 16
2020-10-28 01:26:06 GMT 42.217381 -83.358551 0 23 18
2020-10-28 01:26:03 GMT 42.216969 -83.358818 0 32 15
2020-10-28 01:26:00 GMT 42.216969 -83.358818 0 24 16
2020-10-28 01:25:57 GMT 42.216759 -83.358932 0 25 15
2020-10-28 01:25:54 GMT 42.216591 -83.359131 0 22 14
2020-10-28 01:25:51 GMT 42.216419 -83.359230 0 26 12
2020-10-28 01:25:48 GMT 42.216240 -83.359337 0 32 16
2020-10-28 01:25:45 GMT 42.216061 -83.359489 0 20 15
2020-10-28 01:25:42 GMT 42.215870 -83.359589 0 12 15
2020-10-28 01:25:39 GMT 42.215679 -83.359589 0 320 11
2020-10-28 01:25:36 GMT 42.215519 -83.359543 0 302 16
2020-10-28 01:25:33 GMT 42.215420 -83.359306 0 322 14
2020-10-28 01:25:30 GMT 42.215141 -83.359161 0 15 14
2020-10-28 01:25:27 GMT 42.215141 -83.359161 0 21 14
2020-10-28 01:25:24 GMT 42.214909 -83.359207 0 32 11
2020-10-28 01:25:21 GMT 42.214802 -83.359329 0 21 14
2020-10-28 01:25:18 GMT 42.214611 -83.359444 0 25 16
2020-10-28 01:25:15 GMT 42.214359 -83.359558 0 34 21
2020-10-28 01:25:12 GMT 42.214111 -83.359772 0 32 17
2020-10-28 01:25:09 GMT 42.213928 -83.359909 0 10 15
2020-10-28 01:25:06 GMT 42.213711 -83.360062 0 29 14
2020-10-28 01:25:03 GMT 42.213539 -83.360222 0 29 17
2020-10-28 01:25:00 GMT 42.213299 -83.360291 0 31 15
2020-10-28 01:24:57 GMT 42.213112 -83.360443 0 37 15
2020-10-28 01:24:54 GMT 42.212929 -83.360611 0 27 12
2020-10-28 01:24:51 GMT 42.212761 -83.360710 0 32 11
2020-10-28 01:24:48 GMT 42.212631 -83.360809 0 31 13
2020-10-28 01:24:45 GMT 42.212448 -83.360931 0 34 10
2020-10-28 01:24:42 GMT 42.212349 -83.361053 0 30 9
2020-10-28 01:24:39 GMT 42.212292 -83.361214 0 2 8
2020-10-28 01:24:36 GMT 42.212029 -83.361237 0 21 9
2020-10-28 01:24:33 GMT 42.212029 -83.361237 0 14 8
2020-10-28 01:24:30 GMT 42.211891 -83.361320 0 4 4
2020-10-28 01:24:27 GMT 42.211811 -83.361328 0 354 4
2020-10-28 01:24:24 GMT 42.211750 -83.361343 0 338 3
2020-10-28 01:24:21 GMT 42.211651 -83.361397 0 327 2
2020-10-28 01:24:18 GMT 42.211601 -83.361488 0 322 2
2020-10-28 01:24:15 GMT 42.211609 -83.361603 0 314 1
2020-10-28 01:24:12 GMT 42.211609 -83.361603 0 312 1
2020-10-28 01:24:09 GMT 42.211609 -83.361649 0 310 0
2020-10-28 01:24:06 GMT 42.211620 -83.361618 0 310 0
2020-10-28 01:24:03 GMT 42.211609 -83.361633 0 310 0
2020-10-28 01:24:00 GMT 42.211609 -83.361633 0 310 1
2020-10-28 01:23:57 GMT 42.211601 -83.361618 0 310 1
2020-10-28 01:23:54 GMT 42.211609 -83.361633 0 312 1
2020-10-28 01:23:49 GMT 42.211620 -83.361633 0 312 0
2020-10-28 01:23:46 GMT 42.211620 -83.361633 0 312 0
2020-10-28 01:23:43 GMT 42.211620 -83.361633 0 312 0
2020-10-28 01:23:40 GMT 42.211609 -83.361656 0 312 0
2020-10-28 01:23:37 GMT 42.211601 -83.361633 0 312 0
2020-10-28 01:23:34 GMT 42.211609 -83.361618 0 312 0
2020-10-28 01:23:31 GMT 42.211609 -83.361618 0 312 0
2020-10-28 01:23:28 GMT 42.211609 -83.361649 0 312 0
2020-10-28 01:23:24 GMT 42.211620 -83.361633 0 312 0
2020-10-28 01:23:21 GMT 42.211620 -83.361618 0 308 0
2020-10-28 01:23:18 GMT 42.211609 -83.361633 0 308 0
2020-10-28 01:23:15 GMT 42.211609 -83.361641 0 308 0
2020-10-28 01:23:12 GMT 42.211620 -83.361618 0 308 0
2020-10-28 01:23:09 GMT 42.211609 -83.361649 0 308 0
2020-10-28 01:23:06 GMT 42.211620 -83.361618 0 308 0
2020-10-28 01:23:02 GMT 42.211609 -83.361649 0 308 0
2020-10-28 01:22:59 GMT 42.211620 -83.361633 0 307 0
2020-10-28 01:22:56 GMT 42.211609 -83.361633 0 307 0
2020-10-28 01:22:53 GMT 42.211609 -83.361641 0 307 0
2020-10-28 01:22:50 GMT 42.211609 -83.361656 0 303 0
2020-10-28 01:22:47 GMT 42.211609 -83.361641 0 300 1
2020-10-28 01:22:44 GMT 42.211609 -83.361649 0 298 0
2020-10-28 01:22:41 GMT 42.211620 -83.361618 0 296 0
2020-10-28 01:22:38 GMT 42.211609 -83.361649 0 296 0
2020-10-28 01:22:35 GMT 42.211620 -83.361633 0 296 0
2020-10-28 01:22:32 GMT 42.211620 -83.361618 0 296 0
2020-10-28 01:22:29 GMT 42.211601 -83.361633 0 296 0
2020-10-28 01:22:26 GMT 42.211590 -83.361580 0 296 0
2020-10-28 01:22:23 GMT 42.211590 -83.361572 0 296 0
2020-10-28 01:22:20 GMT 42.211609 -83.361603 0 296 0
2020-10-28 01:22:17 GMT 42.211609 -83.361603 0 296 0
2020-10-28 01:22:14 GMT 42.211609 -83.361572 0 296 0
2020-10-28 01:21:59 GMT 42.211620 -83.361557 0 296 0
2020-10-28 01:21:56 GMT 42.211620 -83.361572 0 296 0
2020-10-28 01:21:53 GMT 42.211632 -83.361588 0 298 2
2020-10-28 01:21:50 GMT 42.211632 -83.361588 0 298 3
2020-10-28 01:21:47 GMT 42.211632 -83.361549 0 300 3
2020-10-28 01:21:44 GMT 42.211609 -83.361511 0 303 3
2020-10-28 01:21:41 GMT 42.211571 -83.361389 0 310 3
2020-10-28 01:21:38 GMT 42.211571 -83.361389 0 309 4
2020-10-28 01:21:35 GMT 42.211540 -83.361351 0 306 4
2020-10-28 01:21:32 GMT 42.211521 -83.361366 0 298 5

Making use of Plane Finder data

You are free to use the raw flight data, aircraft information and images provided in this report for your own purposes provided the data is correctly attributed to Plane Finder. We ask that you please credit Plane Finder and link to planefinder.net in close proximity to the content.

Optionally one of the following logos (no smaller then 150x24px) can be used and must link to planefinder.net

Embedding the Plane Finder map

You are welcome to embed the Plane Finder playback map on your website to offer visitors a more interactive experience. We suggest using the following HTML code:

<iframe src="//planefinder.net/data/report/DL3774-N931EV-7700-squawk-2020-10-28/map" width="800" height="600" seamless="seamless"></iframe>

Where our data comes from

Plane Finder has a global network of data feeds and antenna radars that receive data broadcast directly from aircraft. The primary technologies used are ADS-B and MLAT. We also show feeds from the FAA and a FLARM glider feed.

Click here to find out more about the Plane Finder network.

How we collect our data